Time;durP1;ratioP1;P1;durP2;ratioP2;P2;SDS_P1;SDS_P2;PMS_P1;PMS_P2;Temp;Humidity;BMP_temperature;BMP_pressure;BME280_temperature;BME280_humidity;BME280_pressure;Samples;Min_cycle;Max_cycle;Signal;HPM_P1;HPM_P2
2024/04/26 00:01:18;;;;;;;4.57;2.13;;;;;;;-145.69;60.11;52313.69;5527485;26;20666;-75
2024/04/26 00:03:46;;;;;;;7.63;2.07;;;;;;;-145.69;60.24;52278.03;5527381;26;20335;-77
2024/04/26 00:06:15;;;;;;;2.87;1.87;;;;;;;-145.69;60.14;52266.16;5526986;26;20276;-75
2024/04/26 00:08:43;;;;;;;5.53;2.20;;;;;;;-145.69;60.39;52278.03;5527161;26;20263;-75
2024/04/26 00:11:12;;;;;;;6.13;2.00;;;;;;;-145.69;60.73;52293.88;5527450;26;20557;-76
2024/04/26 00:13:42;;;;;;;7.87;1.90;;;;;;;-145.69;61.00;52278.03;5527172;26;20221;-74
2024/04/26 00:16:10;;;;;;;4.33;2.27;;;;;;;-145.69;61.68;52297.84;5526605;26;20391;-76
2024/04/26 00:18:38;;;;;;;4.87;2.00;;;;;;;-145.69;61.71;52293.88;5526946;26;20285;-77
2024/04/26 00:21:07;;;;;;;9.83;2.10;;;;;;;-145.69;60.96;52307.75;5527244;26;20222;-77
2024/04/26 00:23:32;;;;;;;4.13;1.73;;;;;;;-145.69;60.73;52293.88;5527026;26;20214;-75
2024/04/26 00:26:00;;;;;;;5.73;1.97;;;;;;;-145.69;60.66;52287.94;5526486;26;20301;-75
2024/04/26 00:28:28;;;;;;;2.53;1.80;;;;;;;-145.69;60.81;52313.69;5527150;26;20222;-77
2024/04/26 00:30:59;;;;;;;5.83;2.07;;;;;;;-145.69;60.46;52287.94;5526578;26;20285;-75
2024/04/26 00:33:27;;;;;;;7.90;2.27;;;;;;;-145.69;59.91;52295.84;5526386;26;20329;-77
2024/04/26 00:35:55;;;;;;;8.23;2.53;;;;;;;-145.69;59.59;52270.13;5526355;26;20233;-76
2024/04/26 00:38:24;;;;;;;5.47;1.90;;;;;;;-145.69;58.95;52301.81;5526919;26;20325;-76
2024/04/26 00:40:52;;;;;;;7.63;2.27;;;;;;;-145.69;58.41;52303.78;5526770;26;20221;-76
2024/04/26 00:43:20;;;;;;;5.20;2.47;;;;;;;-145.69;58.33;52309.72;5526579;26;20252;-76
2024/04/26 00:45:48;;;;;;;5.60;2.40;;;;;;;-145.69;57.77;52289.91;5526121;25;20229;-76
2024/04/26 00:48:19;;;;;;;8.53;2.07;;;;;;;-145.69;57.68;52246.34;5489347;26;20230;-75
2024/04/26 00:50:47;;;;;;;6.30;2.20;;;;;;;-145.69;56.83;52301.81;5489996;26;20257;-76
2024/04/26 00:53:15;;;;;;;6.13;2.27;;;;;;;-145.69;56.25;52301.81;5489274;26;20257;-75
2024/04/26 00:55:45;;;;;;;4.33;1.70;;;;;;;-145.69;55.78;52266.16;5496771;26;20266;-75
2024/04/26 00:58:15;;;;;;;3.90;1.97;;;;;;;-145.69;55.46;52303.78;5526487;26;20221;-76
2024/04/26 01:00:44;;;;;;;5.50;2.13;;;;;;;-145.69;54.59;52282.00;5526415;26;20252;-76
2024/04/26 01:03:12;;;;;;;8.93;1.87;;;;;;;-145.69;55.04;52272.09;5526253;26;20351;-76
2024/04/26 01:05:43;;;;;;;6.63;2.03;;;;;;;-145.69;54.80;52293.88;5525715;26;20263;-77
2024/04/26 01:08:09;;;;;;;3.03;1.87;;;;;;;-145.69;54.85;52309.72;5526398;26;20264;-74
2024/04/26 01:10:37;;;;;;;5.83;1.80;;;;;;;-145.69;55.02;52289.91;5524539;26;20225;-75
2024/04/26 01:13:08;;;;;;;3.20;1.93;;;;;;;-145.69;54.76;52305.75;5526471;26;20693;-75
2024/04/26 01:15:36;;;;;;;5.73;2.13;;;;;;;-145.69;54.79;52282.00;5525218;26;20225;-75
2024/04/26 01:18:04;;;;;;;6.93;2.10;;;;;;;-145.69;55.03;52311.69;5525727;26;20230;-75
2024/04/26 01:20:32;;;;;;;5.27;1.77;;;;;;;-145.69;55.25;52301.81;5489946;26;20230;-76
2024/04/26 01:23:03;;;;;;;3.33;1.80;;;;;;;-145.69;55.60;52287.94;5489286;26;20238;-76
2024/04/26 01:25:37;;;;;;;3.80;1.80;;;;;;;-145.69;55.19;52260.22;5491755;26;20234;-76
2024/04/26 01:28:06;;;;;;;8.67;2.20;;;;;;;-145.69;54.67;52278.03;5525435;26;20277;-75
2024/04/26 01:30:34;;;;;;;4.23;2.00;;;;;;;-145.69;55.03;52270.13;5525750;26;20290;-75
2024/04/26 01:33:02;;;;;;;2.37;1.70;;;;;;;-145.69;54.51;52297.84;5525954;26;20256;-76
2024/04/26 01:35:30;;;;;;;7.90;2.10;;;;;;;-145.69;54.87;52270.13;5525793;26;20221;-74
2024/04/26 01:37:58;;;;;;;4.27;2.03;;;;;;;-145.69;55.20;52276.06;5525463;26;20260;-74
2024/04/26 01:40:27;;;;;;;4.27;1.63;;;;;;;-145.69;54.84;52289.91;5525888;26;20293;-76
2024/04/26 01:42:58;;;;;;;7.17;2.17;;;;;;;-145.69;54.81;52278.03;5525829;26;20217;-78
2024/04/26 01:45:26;;;;;;;6.50;1.70;;;;;;;-145.69;54.66;52289.91;5524923;26;20268;-77
2024/04/26 01:47:52;;;;;;;5.60;1.90;;;;;;;-145.69;54.79;52274.06;5525773;26;20313;-78
2024/04/26 01:50:20;;;;;;;5.37;1.90;;;;;;;-145.69;54.63;52287.94;5525531;26;20217;-77
2024/04/26 01:52:50;;;;;;;4.40;1.93;;;;;;;-145.69;54.50;52254.28;5525405;26;20682;-77
2024/04/26 01:55:16;;;;;;;8.37;2.17;;;;;;;-145.69;54.81;52264.16;5525594;26;20229;-76
2024/04/26 01:57:44;;;;;;;4.97;2.00;;;;;;;-145.69;54.86;52276.06;5525240;26;20275;-76
2024/04/26 02:00:13;;;;;;;5.00;2.07;;;;;;;-145.69;54.33;52283.97;5488745;26;20286;-76
2024/04/26 02:02:41;;;;;;;5.17;2.33;;;;;;;-145.69;53.72;52282.00;5488187;26;20222;-76
2024/04/26 02:05:07;;;;;;;7.33;2.17;;;;;;;-145.69;52.73;52254.28;5487958;26;20266;-77
2024/04/26 02:07:35;;;;;;;6.23;2.17;;;;;;;-145.69;53.05;52283.97;5521158;26;20285;-77
2024/04/26 02:10:01;;;;;;;4.37;2.10;;;;;;;-145.69;52.72;52280.00;5525380;26;20229;-77
2024/04/26 02:12:29;;;;;;;3.83;2.00;;;;;;;-145.69;52.64;52244.38;5525099;26;20260;-77
2024/04/26 02:14:55;;;;;;;7.57;2.23;;;;;;;-145.69;52.58;52315.66;5525426;26;20708;-76
2024/04/26 02:17:25;;;;;;;8.67;2.23;;;;;;;-145.69;52.54;52274.06;5524865;26;20333;-76
2024/04/26 02:19:51;;;;;;;3.13;1.70;;;;;;;-145.69;52.60;52276.06;5525377;26;20226;-77
2024/04/26 02:22:19;;;;;;;5.97;2.20;;;;;;;-145.69;51.61;52262.19;5525858;26;20260;-77
2024/04/26 02:24:47;;;;;;;6.20;2.20;;;;;;;-145.69;52.19;52238.44;5528692;26;20263;-74
2024/04/26 02:27:15;;;;;;;4.90;1.90;;;;;;;-145.69;51.77;52266.16;5528461;26;20907;-76
2024/04/26 02:29:44;;;;;;;4.23;1.87;;;;;;;-145.69;51.71;52305.75;5528955;26;20255;-75
2024/04/26 02:32:12;;;;;;;3.87;1.70;;;;;;;-145.69;51.86;52289.91;5527935;26;20263;-76
2024/04/26 02:34:43;;;;;;;6.70;2.10;;;;;;;-145.69;51.74;52234.47;5528573;26;20236;-75
2024/04/26 02:37:11;;;;;;;3.77;2.00;;;;;;;-145.69;51.38;52272.09;5528640;26;20230;-75
2024/04/26 02:39:42;;;;;;;3.10;1.70;;;;;;;-145.69;51.25;52278.03;5528716;26;20222;-74
2024/04/26 02:42:10;;;;;;;5.33;2.20;;;;;;;-145.69;51.20;52276.06;5527540;26;20716;-77
2024/04/26 02:48:03;;;;;;;5.00;2.23;;;;;;;-145.69;50.36;52266.16;5523405;26;20289;-76
2024/04/26 02:50:34;;;;;;;5.13;2.67;;;;;;;-145.69;50.01;52258.22;5528661;26;20264;-76
2024/04/26 02:53:05;;;;;;;3.07;1.97;;;;;;;-145.69;50.03;52289.91;5528308;26;20221;-78
2024/04/26 02:55:33;;;;;;;8.40;2.00;;;;;;;-145.69;50.35;52242.38;5527610;25;20229;-77
2024/04/26 02:58:02;;;;;;;5.30;2.30;;;;;;;-145.69;49.68;52262.19;5527704;26;20284;-75
2024/04/26 03:00:30;;;;;;;3.80;1.80;;;;;;;-145.69;49.57;52224.56;5528372;26;20233;-76
2024/04/26 03:02:58;;;;;;;3.40;1.70;;;;;;;-145.69;49.89;52262.19;5528378;26;20339;-77
2024/04/26 03:05:29;;;;;;;7.03;2.67;;;;;;;-145.69;48.54;52246.34;5528079;26;20692;-76
2024/04/26 03:07:59;;;;;;;4.00;1.80;;;;;;;-145.69;49.23;52254.28;5528010;26;20332;-76
2024/04/26 03:10:28;;;;;;;5.90;2.10;;;;;;;-145.69;49.14;52250.31;5528405;26;20282;-77
2024/04/26 03:12:56;;;;;;;5.60;1.87;;;;;;;-145.69;49.88;52252.28;5527829;26;20238;-77
2024/04/26 03:15:24;;;;;;;3.20;1.70;;;;;;;-145.69;49.85;52266.16;5527041;26;20225;-77
2024/04/26 03:17:53;;;;;;;7.20;2.10;;;;;;;-145.69;49.64;52266.16;5527481;26;20225;-77
2024/04/26 03:20:21;;;;;;;5.17;1.90;;;;;;;-145.69;50.42;52262.19;5528041;26;20280;-77
2024/04/26 03:22:49;;;;;;;7.33;2.33;;;;;;;-145.69;50.60;52236.44;5527854;26;20317;-77
2024/04/26 03:25:20;;;;;;;4.03;1.87;;;;;;;-145.69;51.93;52226.53;5527704;26;20234;-76
2024/04/26 03:27:48;;;;;;;4.43;1.90;;;;;;;-145.69;53.15;52218.63;5527704;26;20241;-76
2024/04/26 03:30:16;;;;;;;3.47;1.60;;;;;;;-145.69;53.85;52242.38;5527815;26;20225;-76
2024/04/26 03:32:44;;;;;;;4.53;1.73;;;;;;;-145.69;54.21;52264.16;5527484;26;20267;-76
2024/04/26 03:35:12;;;;;;;3.83;1.57;;;;;;;-145.69;54.57;52248.34;5526755;26;20285;-77
2024/04/26 03:37:41;;;;;;;6.37;1.83;;;;;;;-145.69;54.70;52252.28;5527442;26;20265;-76
2024/04/26 03:40:12;;;;;;;3.80;1.77;;;;;;;-145.69;55.18;52230.50;5527654;26;20217;-76
2024/04/26 03:42:43;;;;;;;7.07;2.07;;;;;;;-145.69;55.29;52214.66;5527413;26;20321;-77
2024/04/26 03:45:13;;;;;;;4.80;1.83;;;;;;;-145.69;56.18;52254.28;5527257;26;20741;-77
2024/04/26 03:47:41;;;;;;;6.10;2.20;;;;;;;-145.69;55.90;52256.25;5526635;26;20782;-76
2024/04/26 03:50:07;;;;;;;6.87;2.37;;;;;;;-145.69;56.61;52272.09;5525852;26;20324;-76
2024/04/26 03:52:35;;;;;;;5.93;2.00;;;;;;;-145.69;57.10;52268.13;5527109;26;20564;-76
2024/04/26 03:55:03;;;;;;;6.47;1.80;;;;;;;-145.69;57.50;52236.44;5527603;26;20305;-75
2024/04/26 03:57:31;;;;;;;5.57;1.70;;;;;;;-145.69;57.90;52244.38;5527097;26;20231;-78
2024/04/26 04:00:02;;;;;;;4.37;1.83;;;;;;;-145.69;58.02;52238.44;5527364;26;20349;-77
2024/04/26 04:02:31;;;;;;;2.57;1.83;;;;;;;-145.69;58.40;52234.47;5527756;26;20222;-77
2024/04/26 04:04:59;;;;;;;6.20;1.93;;;;;;;-145.69;58.29;52238.44;5527433;26;20592;-77
2024/04/26 04:07:27;;;;;;;3.77;1.77;;;;;;;-145.69;58.03;52246.34;5527094;26;20256;-76
2024/04/26 04:09:55;;;;;;;3.00;1.70;;;;;;;-145.69;58.13;52238.44;5525454;26;20602;-77
2024/04/26 04:12:23;;;;;;;3.53;1.60;;;;;;;-145.69;58.30;52256.25;5527551;26;20221;-76
2024/04/26 04:14:51;;;;;;;3.77;1.60;;;;;;;-145.69;58.16;52262.19;5526821;26;20285;-77
2024/04/26 04:17:22;;;;;;;3.10;2.00;;;;;;;-145.69;57.88;52278.03;5527145;26;20236;-75
2024/04/26 04:19:50;;;;;;;7.10;1.90;;;;;;;-145.69;58.01;52285.97;5526452;26;20285;-77
2024/04/26 04:22:18;;;;;;;3.70;1.73;;;;;;;-145.69;57.46;52282.00;5526931;26;20264;-76
2024/04/26 04:24:46;;;;;;;2.83;1.97;;;;;;;-145.69;57.39;52278.03;5526676;26;20647;-77
2024/04/26 04:27:15;;;;;;;8.93;1.90;;;;;;;-145.69;57.13;52250.31;5526300;26;20261;-77
2024/04/26 04:29:43;;;;;;;5.37;1.80;;;;;;;-145.69;56.89;52246.34;5526726;26;20716;-77
2024/04/26 04:32:11;;;;;;;3.60;2.00;;;;;;;-145.69;57.02;52270.13;5526249;26;20289;-77
2024/04/26 04:34:42;;;;;;;9.53;2.67;;;;;;;-145.69;56.79;52262.19;5526932;26;20281;-76
2024/04/26 04:37:10;;;;;;;3.10;2.00;;;;;;;-145.69;56.38;52274.06;5527137;26;20264;-76
2024/04/26 04:39:40;;;;;;;6.03;2.40;;;;;;;-145.69;56.22;52242.38;5526711;26;20330;-76
2024/04/26 04:42:08;;;;;;;3.67;2.10;;;;;;;-145.69;56.24;52254.28;5526905;26;20221;-76
2024/04/26 04:44:37;;;;;;;7.80;2.90;;;;;;;-145.69;56.18;52230.50;5525908;26;20288;-77
2024/04/26 04:47:06;;;;;;;6.50;2.27;;;;;;;-145.69;56.35;52246.34;5525081;26;20326;-76
2024/04/26 04:49:34;;;;;;;4.30;1.70;;;;;;;-145.69;55.37;52246.34;5526254;26;20282;-76
2024/04/26 04:52:05;;;;;;;4.70;1.90;;;;;;;-145.69;54.99;52256.25;5526958;26;20266;-76
2024/04/26 04:54:34;;;;;;;5.60;1.70;;;;;;;-145.69;54.28;52268.13;5526637;26;20221;-77
2024/04/26 04:57:02;;;;;;;3.87;1.80;;;;;;;-145.69;50.22;52242.38;5526915;26;20222;-76
2024/04/26 04:59:30;;;;;;;7.93;2.53;;;;;;;-145.69;49.79;52232.50;5526164;26;20601;-75
2024/04/26 05:01:58;;;;;;;4.17;2.00;;;;;;;-145.69;49.56;52276.06;5526038;26;20214;-78
2024/04/26 05:04:26;;;;;;;3.20;1.97;;;;;;;-145.69;48.97;52214.66;5525259;26;20276;-76
2024/04/26 05:06:54;;;;;;;4.70;2.00;;;;;;;-145.69;48.17;52222.59;5525864;26;20589;-76
2024/04/26 05:09:25;;;;;;;4.50;1.83;;;;;;;-145.69;47.58;52254.28;5526128;26;20275;-76
2024/04/26 05:11:54;;;;;;;4.77;2.13;;;;;;;-145.69;47.30;52252.28;5526313;26;20284;-75
2024/04/26 05:14:22;;;;;;;4.40;2.30;;;;;;;-145.69;47.37;52230.50;5526036;26;20230;-76
2024/04/26 05:16:53;;;;;;;6.03;2.13;;;;;;;-145.69;47.71;52260.22;5526375;26;20234;-76
2024/04/26 05:19:21;;;;;;;3.10;1.60;;;;;;;-145.69;47.55;52226.53;5525176;26;20233;-77
2024/04/26 05:21:49;;;;;;;3.50;2.07;;;;;;;-145.69;47.56;52216.66;5526324;26;20848;-77
2024/04/26 05:24:17;;;;;;;7.03;1.97;;;;;;;-145.69;47.92;52254.28;5526142;26;20821;-77
2024/04/26 05:26:49;;;;;;;4.90;2.00;;;;;;;-145.69;46.96;52234.47;5526089;26;20233;-77
2024/04/26 05:29:17;;;;;;;4.80;2.00;;;;;;;-145.69;49.03;52228.53;5525736;26;20267;-77
2024/04/26 05:31:45;;;;;;;6.63;1.80;;;;;;;-145.69;48.72;52198.81;5526202;26;20285;-77
2024/04/26 05:34:14;;;;;;;4.43;2.00;;;;;;;-145.69;48.19;52250.31;5525986;26;20337;-76
2024/04/26 05:36:42;;;;;;;4.13;1.73;;;;;;;-145.69;46.97;52226.53;5525515;26;20222;-77
2024/04/26 05:39:13;;;;;;;4.90;1.63;;;;;;;-145.69;48.15;52230.50;5525911;26;20229;-76
2024/04/26 05:41:42;;;;;;;4.25;1.80;;;;;;;-145.69;48.58;52218.63;5524883;26;20405;-76
2024/04/26 05:44:12;;;;;;;5.63;1.83;;;;;;;-145.69;48.05;52214.66;5525227;26;20233;-78
2024/04/26 05:46:41;;;;;;;6.83;2.20;;;;;;;-145.69;48.54;52246.34;5525788;26;20229;-76
2024/04/26 05:49:09;;;;;;;3.20;1.70;;;;;;;-145.69;48.44;52224.56;5525604;26;20349;-76
2024/04/26 05:51:38;;;;;;;5.20;2.20;;;;;;;-145.69;47.72;52208.72;5525723;26;20225;-76
2024/04/26 05:54:06;;;;;;;4.60;2.23;;;;;;;-145.69;48.78;52226.53;5524862;26;20277;-77
2024/04/26 05:56:34;;;;;;;6.47;2.83;;;;;;;-145.69;49.27;52244.38;5525083;26;20331;-77
2024/04/26 05:59:02;;;;;;;4.13;2.20;;;;;;;-145.69;50.70;52220.59;5525508;26;20625;-77
2024/04/26 06:01:34;;;;;;;3.53;2.03;;;;;;;-145.69;50.31;52254.28;5525693;26;20289;-78
2024/04/26 06:04:02;;;;;;;3.77;2.30;;;;;;;-145.69;49.91;52238.44;5525846;26;20222;-75
2024/04/26 06:06:32;;;;;;;9.13;1.97;;;;;;;-145.69;49.92;52228.53;5525549;26;20729;-77
2024/04/26 06:09:07;;;;;;;3.30;2.00;;;;;;;-145.69;49.73;52206.75;5524990;26;20222;-77
2024/04/26 06:11:36;;;;;;;8.47;2.07;;;;;;;-145.69;49.76;52198.81;5525371;26;20224;-77
2024/04/26 06:14:04;;;;;;;2.87;1.90;;;;;;;-145.69;49.99;52206.75;5524615;26;20342;-77
2024/04/26 06:16:35;;;;;;;7.17;2.20;;;;;;;-145.69;50.64;52194.88;5524850;26;20292;-77
2024/04/26 06:19:03;;;;;;;7.80;2.10;;;;;;;-145.69;50.63;52234.47;5524940;26;20233;-77
2024/04/26 06:21:32;;;;;;;4.17;1.90;;;;;;;-145.69;49.96;52198.81;5525246;26;20232;-76
2024/04/26 06:24:00;;;;;;;6.27;2.00;;;;;;;-145.69;50.10;52218.63;5525187;26;20265;-76
2024/04/26 06:26:28;;;;;;;9.00;1.53;;;;;;;-145.69;49.53;52194.88;5525113;26;20732;-75
2024/04/26 06:28:59;;;;;;;4.07;2.00;;;;;;;-145.69;49.60;52214.66;5524792;26;20225;-76
2024/04/26 06:31:27;;;;;;;4.20;1.97;;;;;;;-145.69;50.04;52224.56;5524801;26;20293;-76
2024/04/26 06:33:58;;;;;;;4.00;1.80;;;;;;;-145.69;50.89;52175.06;5524760;26;20244;-76
2024/04/26 06:36:26;;;;;;;6.63;1.93;;;;;;;-145.69;52.52;52222.59;5525154;26;20661;-76
2024/04/26 06:38:57;;;;;;;2.90;1.60;;;;;;;-145.69;52.90;52216.66;5524604;26;20285;-76
2024/04/26 06:41:25;;;;;;;4.47;1.70;;;;;;;-145.69;53.16;52214.66;5524915;26;20222;-75
2024/04/26 06:43:54;;;;;;;2.50;1.70;;;;;;;-145.69;53.82;52218.63;5524669;26;20361;-75
2024/04/26 06:46:24;;;;;;;2.37;1.67;;;;;;;-145.69;53.88;52216.66;5524553;26;20225;-76
2024/04/26 06:48:53;;;;;;;3.73;1.80;;;;;;;-145.69;55.08;52232.50;5524520;26;20229;-75
2024/04/26 06:51:26;;;;;;;3.13;1.70;;;;;;;-145.69;54.35;52194.88;5523733;26;20675;-76
2024/04/26 06:53:55;;;;;;;4.70;1.70;;;;;;;-145.69;54.58;52206.75;5524798;26;20361;-76
2024/04/26 06:56:24;;;;;;;4.13;2.10;;;;;;;-145.69;54.03;52202.78;5524698;26;20245;-75
2024/04/26 06:58:52;;;;;;;3.60;1.90;;;;;;;-145.69;53.02;52204.75;5524222;26;20353;-77
2024/04/26 07:01:20;;;;;;;2.90;1.57;;;;;;;-145.69;52.49;52274.06;5524594;26;20233;-76
2024/04/26 07:03:48;;;;;;;1.60;1.33;;;;;;;-145.69;52.27;52161.19;5524503;26;20222;-76
2024/04/26 07:06:16;;;;;;;2.30;1.57;;;;;;;-145.69;51.55;52196.84;5524283;26;20265;-76
2024/04/26 07:08:47;;;;;;;2.50;1.40;;;;;;;-145.69;51.16;52165.16;5524265;26;20285;-76
2024/04/26 07:11:15;;;;;;;5.40;1.60;;;;;;;-145.69;50.62;52179.03;5527265;26;20700;-77
2024/04/26 07:13:46;;;;;;;4.43;1.87;;;;;;;-145.69;50.15;52169.13;5526818;25;20593;-76
2024/04/26 07:16:19;;;;;;;4.53;1.30;;;;;;;-145.69;49.78;52171.09;5528016;26;20230;-76
2024/04/26 07:18:47;;;;;;;5.60;2.37;;;;;;;-145.69;49.76;52194.88;5527632;26;20256;-76
2024/04/26 07:21:17;;;;;;;8.20;3.43;;;;;;;-145.69;49.84;52218.63;5528056;26;20289;-76
2024/04/26 07:23:50;;;;;;;2.37;1.63;;;;;;;-145.69;49.61;52149.31;5528065;26;20268;-77
2024/04/26 07:26:25;;;;;;;3.23;2.10;;;;;;;-145.69;49.68;52192.88;5527456;26;20709;-75
2024/04/26 07:28:53;;;;;;;5.30;2.10;;;;;;;-145.69;48.06;52175.06;5527227;26;20693;-77
2024/04/26 07:31:24;;;;;;;3.50;1.70;;;;;;;-145.69;47.45;52177.03;5527818;26;20339;-75
2024/04/26 07:33:52;;;;;;;4.60;1.40;;;;;;;-145.69;47.58;52192.88;5527207;26;20226;-75
2024/04/26 07:36:20;;;;;;;4.43;2.33;;;;;;;-145.69;47.50;52161.19;5526492;26;20684;-75
2024/04/26 07:38:51;;;;;;;2.83;1.83;;;;;;;-145.69;46.29;52216.66;5527086;26;20286;-75
2024/04/26 07:41:22;;;;;;;5.63;2.33;;;;;;;-145.69;47.21;52190.91;5527621;26;20226;-76
2024/04/26 07:43:50;;;;;;;4.30;2.00;;;;;;;-145.69;47.17;52202.78;5527910;26;20233;-75
2024/04/26 07:46:20;;;;;;;4.33;1.77;;;;;;;-145.69;47.55;52135.47;5527704;26;20328;-75
2024/04/26 07:48:48;;;;;;;3.20;1.80;;;;;;;-145.69;48.02;52206.75;5526550;26;20646;-75
2024/04/26 07:51:19;;;;;;;6.70;2.20;;;;;;;-145.69;48.39;52175.06;5526705;26;20332;-76
2024/04/26 07:53:47;;;;;;;3.43;1.90;;;;;;;-145.69;49.88;52230.50;5527569;26;20321;-76
2024/04/26 07:56:18;;;;;;;3.93;1.87;;;;;;;-145.69;50.59;52214.66;5527398;26;20246;-76
2024/04/26 07:58:48;;;;;;;4.83;2.00;;;;;;;-145.69;50.30;52214.66;5527076;26;20597;-76
2024/04/26 08:01:19;;;;;;;36.10;16.87;;;;;;;-145.69;50.90;52186.94;5527484;26;20225;-75
2024/04/26 08:03:50;;;;;;;15.50;9.80;;;;;;;-145.69;50.87;52218.63;5526827;26;20362;-76
2024/04/26 08:06:20;;;;;;;4.60;2.73;;;;;;;-145.69;50.49;52224.56;5527086;26;20221;-76
2024/04/26 08:08:49;;;;;;;1.92;1.30;;;;;;;-145.69;51.79;52192.88;5524815;26;20356;-76
2024/04/26 08:11:20;;;;;;;3.97;1.70;;;;;;;-145.69;51.42;52210.72;5527397;26;20256;-77
2024/04/26 08:13:48;;;;;;;2.77;1.50;;;;;;;-145.69;51.63;52216.66;5527348;26;20221;-76
2024/04/26 08:16:18;;;;;;;4.17;1.50;;;;;;;-145.69;52.13;52222.59;5527152;26;20340;-78
2024/04/26 08:18:47;;;;;;;1.67;1.50;;;;;;;-145.69;52.76;52218.63;5526649;26;20329;-76
2024/04/26 08:21:18;;;;;;;1.70;1.10;;;;;;;-145.69;52.46;52210.72;5526825;26;20225;-77
2024/04/26 08:23:51;;;;;;;3.63;1.50;;;;;;;-145.69;51.66;52159.22;5526747;26;20225;-76
2024/04/26 08:26:23;;;;;;;1.60;1.20;;;;;;;-145.69;51.00;52186.94;5526908;26;20720;-77
2024/04/26 08:28:54;;;;;;;1.83;1.03;;;;;;;-145.69;50.62;52208.72;5526707;26;20321;-76
2024/04/26 08:31:22;;;;;;;1.53;1.20;;;;;;;-145.69;48.98;52186.94;5526949;26;20346;-75
2024/04/26 08:33:55;;;;;;;2.53;1.13;;;;;;;-145.69;48.72;52155.25;5526897;26;20775;-77
2024/04/26 08:36:23;;;;;;;1.90;1.30;;;;;;;-145.69;47.81;52167.13;5526666;26;20295;-76
2024/04/26 08:38:54;;;;;;;3.00;1.30;;;;;;;-145.69;46.84;52177.03;5526335;26;20226;-76
2024/04/26 08:41:26;;;;;;;3.43;1.03;;;;;;;-145.69;45.78;52167.13;5526631;26;20553;-75
2024/04/26 08:43:55;;;;;;;2.37;1.27;;;;;;;-145.69;46.16;52169.13;5526923;26;20347;-76
2024/04/26 08:46:28;;;;;;;2.83;1.27;;;;;;;-145.69;45.86;52143.38;5526886;26;20225;-76
2024/04/26 08:48:57;;;;;;;15.25;6.22;;;;;;;-145.69;45.03;52169.13;5526525;26;20288;-76
2024/04/26 08:51:26;;;;;;;2.63;0.90;;;;;;;-145.69;44.15;52121.59;5526549;26;20259;-77
2024/04/26 08:53:54;;;;;;;2.03;1.20;;;;;;;-145.69;44.04;52147.34;5526903;26;20783;-77
2024/04/26 08:56:26;;;;;;;2.75;1.02;;;;;;;-145.69;43.92;52131.50;5526735;26;20257;-75
2024/04/26 08:58:57;;;;;;;1.20;0.95;;;;;;;-145.69;42.38;52123.56;5525546;26;20221;-76
2024/04/26 09:01:29;;;;;;;1.75;0.93;;;;;;;-145.69;44.38;52145.34;5526262;26;20336;-77
2024/04/26 09:03:57;;;;;;;4.30;1.05;;;;;;;-145.69;44.77;52151.28;5522978;26;20226;-76
2024/04/26 09:06:28;;;;;;;1.88;0.85;;;;;;;-145.69;43.56;52151.28;5526101;26;20301;-75
2024/04/26 09:08:56;;;;;;;0.85;0.77;;;;;;;-145.69;42.50;52149.31;5525553;26;20226;-77
2024/04/26 09:11:27;;;;;;;5.63;0.80;;;;;;;-145.69;42.34;52147.34;5525494;26;20229;-76
2024/04/26 09:13:55;;;;;;;0.88;0.70;;;;;;;-145.69;42.69;52139.41;5525252;26;20549;-76
2024/04/26 09:16:24;;;;;;;1.38;0.70;;;;;;;-145.69;41.85;52078.03;5525963;26;20326;-76
2024/04/26 09:18:57;;;;;;;2.30;0.70;;;;;;;-145.69;40.94;52101.78;5522776;25;20241;-75
2024/04/26 09:21:28;;;;;;;1.75;1.05;;;;;;;-145.69;42.21;52139.41;5488760;26;20269;-76
2024/04/26 09:23:56;;;;;;;1.00;0.70;;;;;;;-145.69;41.72;52125.56;5489517;26;20363;-77
2024/04/26 09:26:28;;;;;;;2.72;1.17;;;;;;;-145.69;42.75;52099.81;5489439;26;20682;-76
2024/04/26 09:28:58;;;;;;;1.92;0.80;;;;;;;-145.69;40.67;52141.41;5492448;26;20222;-77
2024/04/26 09:31:26;;;;;;;0.70;0.70;;;;;;;-145.69;40.75;52119.63;5525159;26;20545;-76
2024/04/26 09:33:56;;;;;;;1.05;0.70;;;;;;;-145.69;40.24;52123.56;5524951;26;20683;-77
2024/04/26 09:36:26;;;;;;;1.48;0.88;;;;;;;-145.69;39.96;52103.78;5526273;26;20222;-76
2024/04/26 09:38:56;;;;;;;1.73;1.17;;;;;;;-145.69;40.14;52115.66;5525556;26;20221;-75
2024/04/26 09:41:30;;;;;;;2.45;0.77;;;;;;;-145.69;39.70;52103.78;5525909;26;20836;-76
2024/04/26 09:43:58;;;;;;;0.85;0.80;;;;;;;-145.69;40.85;52095.84;5525894;26;20256;-77
2024/04/26 09:46:30;;;;;;;1.55;1.00;;;;;;;-145.69;41.04;52078.03;5526106;26;20217;-77
2024/04/26 09:48:58;;;;;;;2.72;0.93;;;;;;;-145.69;39.50;52089.91;5525337;26;20252;-77
2024/04/26 09:51:29;;;;;;;3.38;1.55;;;;;;;-145.69;40.37;52097.84;5525307;26;20221;-77
2024/04/26 09:54:01;;;;;;;3.00;1.60;;;;;;;-145.69;40.40;52103.78;5524913;26;20302;-77
2024/04/26 09:56:32;;;;;;;2.95;1.52;;;;;;;-145.69;40.23;52109.72;5525851;26;20233;-76
2024/04/26 09:59:05;;;;;;;1.42;1.02;;;;;;;-145.69;40.52;52123.56;5525316;26;20221;-76
2024/04/26 10:01:37;;;;;;;3.72;1.30;;;;;;;-145.69;40.85;52123.56;5525614;26;20229;-76
2024/04/26 10:04:08;;;;;;;3.65;1.08;;;;;;;-145.69;41.14;52135.47;5525257;26;20332;-76
2024/04/26 10:06:41;;;;;;;2.42;0.98;;;;;;;-145.69;41.06;52117.63;5525398;26;20225;-77
2024/04/26 10:09:12;;;;;;;2.92;0.95;;;;;;;-145.69;40.91;52111.69;5524407;26;21020;-75
2024/04/26 10:11:51;;;;;;;1.30;0.90;;;;;;;-145.69;40.23;52119.63;5525533;26;20221;-76
2024/04/26 10:14:31;;;;;;;3.17;1.00;;;;;;;-145.69;40.89;52101.78;5488371;26;20234;-76
2024/04/26 10:17:10;;;;;;;1.25;0.70;;;;;;;-145.69;39.74;52115.66;5488201;26;20217;-75
2024/04/26 10:19:38;;;;;;;1.00;0.80;;;;;;;-145.69;40.35;52157.25;5500205;26;20329;-76
2024/04/26 10:22:12;;;;;;;3.95;1.80;;;;;;;-145.69;40.72;52099.81;5524995;26;20661;-76
2024/04/26 10:24:43;;;;;;;1.55;1.00;;;;;;;-145.69;40.74;52109.72;5525064;26;20221;-76
2024/04/26 10:27:28;;;;;;;1.73;0.90;;;;;;;-145.69;39.56;52123.56;5524587;26;20237;-76
2024/04/26 10:29:57;;;;;;;0.68;0.50;;;;;;;-145.69;40.74;52131.50;5524710;26;20708;-76
2024/04/26 10:32:25;;;;;;;1.95;0.90;;;;;;;-145.69;40.39;52115.66;5524659;26;20329;-76
2024/04/26 10:34:53;;;;;;;1.13;0.75;;;;;;;-145.69;41.08;52115.66;5525029;26;20570;-76
2024/04/26 10:37:27;;;;;;;2.65;1.10;;;;;;;-145.69;41.04;52123.56;5524619;26;20222;-75
2024/04/26 10:40:06;;;;;;;2.15;1.20;;;;;;;-145.69;41.29;52099.81;5524716;26;20225;-75
2024/04/26 10:42:42;;;;;;;1.45;0.70;;;;;;;-145.69;42.06;52111.69;5523921;26;20735;-75
2024/04/26 10:45:11;;;;;;;1.48;0.90;;;;;;;-145.69;42.80;52151.28;5528372;26;20312;-77
2024/04/26 10:47:39;;;;;;;2.47;0.80;;;;;;;-145.69;42.89;52145.34;5528224;26;20335;-76
2024/04/26 10:50:10;;;;;;;0.60;0.50;;;;;;;-145.69;43.66;52129.50;5527951;26;20229;-76
2024/04/26 10:52:39;;;;;;;1.27;0.70;;;;;;;-145.69;44.21;52119.63;5528296;26;20288;-75
2024/04/26 10:55:08;;;;;;;0.90;0.60;;;;;;;-145.69;44.35;52115.66;5528114;26;20233;-75
2024/04/26 10:57:37;;;;;;;3.00;1.30;;;;;;;-145.69;45.52;52127.53;5528373;26;20273;-75
2024/04/26 11:00:10;;;;;;;0.60;0.60;;;;;;;-145.69;43.59;52131.50;5527879;26;20225;-75
2024/04/26 11:02:39;;;;;;;3.00;1.10;;;;;;;-145.69;44.27;52135.47;5527769;26;20759;-75
2024/04/26 11:05:10;;;;;;;1.55;0.90;;;;;;;-145.69;43.56;52119.63;5528187;26;20541;-75
2024/04/26 11:07:38;;;;;;;1.30;0.80;;;;;;;-145.69;43.43;52133.47;5528138;26;20763;-75
2024/04/26 11:10:10;;;;;;;1.38;1.00;;;;;;;-145.69;42.79;52163.19;5527870;26;20234;-77
2024/04/26 11:12:43;;;;;;;2.67;1.00;;;;;;;-145.69;44.12;52159.22;5527847;26;20237;-76
2024/04/26 11:15:14;;;;;;;0.85;0.65;;;;;;;-145.69;44.60;52119.63;5527864;26;20720;-76
2024/04/26 11:17:46;;;;;;;2.40;0.95;;;;;;;-145.69;46.79;52131.50;5527990;26;20277;-76
2024/04/26 11:20:14;;;;;;;2.72;1.40;;;;;;;-145.69;47.10;52127.53;5527597;26;20245;-76
2024/04/26 11:22:42;;;;;;;1.90;1.23;;;;;;;-145.69;47.47;52145.34;5527423;26;20273;-76
2024/04/26 11:25:13;;;;;;;1.63;0.90;;;;;;;-145.69;47.59;52169.13;5514160;25;20334;-75
2024/04/26 11:27:46;;;;;;;2.35;1.60;;;;;;;-145.69;48.54;52161.19;5489790;26;20687;-76
2024/04/26 11:30:23;;;;;;;2.63;1.90;;;;;;;-145.69;48.12;52149.31;5508125;26;20233;-76